Time;durP1;ratioP1;P1;durP2;ratioP2;P2;SDS_P1;SDS_P2;PMS_P1;PMS_P2;Temp;Humidity;BMP_temperature;BMP_pressure;BME280_temperature;BME280_humidity;BME280_pressure;Samples;Min_cycle;Max_cycle;Signal;HPM_P1;HPM_P2
2024/01/15 00:00:46;;;;;;;16.13;9.40;;;;;;;1.22;100.00;99008.59;5038066;28;20698;-73
2024/01/15 00:03:13;;;;;;;16.37;8.80;;;;;;;1.21;100.00;99009.66;5039346;28;20203;-73
2024/01/15 00:05:40;;;;;;;15.50;8.73;;;;;;;1.21;100.00;99011.50;5033765;28;20195;-73
2024/01/15 00:08:07;;;;;;;13.57;7.60;;;;;;;1.21;100.00;99006.31;5037066;28;20670;-74
2024/01/15 00:10:33;;;;;;;13.57;8.30;;;;;;;1.20;100.00;98995.13;5034967;28;20702;-74
2024/01/15 00:13:00;;;;;;;14.30;7.93;;;;;;;1.20;100.00;99000.31;5032681;28;20614;-73
2024/01/15 00:15:28;;;;;;;16.90;8.00;;;;;;;1.21;100.00;98990.69;5031480;28;20597;-73
2024/01/15 00:17:54;;;;;;;16.67;8.10;;;;;;;1.21;100.00;98993.31;5032034;28;20214;-73
2024/01/15 00:20:22;;;;;;;18.37;9.53;;;;;;;1.21;100.00;98988.09;5033501;28;20234;-74
2024/01/15 00:22:48;;;;;;;15.47;7.97;;;;;;;1.21;100.00;98973.25;5037601;28;20214;-73
2024/01/15 00:25:15;;;;;;;14.10;7.90;;;;;;;1.20;100.00;98995.13;5034879;28;20218;-73
2024/01/15 00:27:41;;;;;;;16.50;8.10;;;;;;;1.22;100.00;98982.59;5035393;28;20222;-73
2024/01/15 00:30:09;;;;;;;16.07;8.87;;;;;;;1.21;100.00;98975.84;5032953;28;20246;-73
2024/01/15 00:32:35;;;;;;;14.37;8.13;;;;;;;1.22;100.00;98974.03;5032694;28;20223;-73
2024/01/15 00:35:03;;;;;;;13.23;8.00;;;;;;;1.21;100.00;98967.31;5035754;28;20210;-73
2024/01/15 00:37:30;;;;;;;13.73;7.90;;;;;;;1.21;100.00;98962.84;5030792;28;20318;-73
2024/01/15 00:39:57;;;;;;;15.53;7.67;;;;;;;1.22;100.00;98964.41;5031259;28;20721;-73
2024/01/15 00:42:23;;;;;;;15.57;7.77;;;;;;;1.23;100.00;98959.97;5035815;28;20231;-74
2024/01/15 00:44:49;;;;;;;13.40;7.10;;;;;;;1.23;100.00;98955.53;5037232;28;20207;-73
2024/01/15 00:47:16;;;;;;;16.33;7.93;;;;;;;1.23;100.00;98960.75;5037331;28;20210;-73
2024/01/15 00:49:42;;;;;;;14.67;8.30;;;;;;;1.22;100.00;98948.81;5038428;28;20577;-73
2024/01/15 00:52:09;;;;;;;13.60;6.97;;;;;;;1.23;100.00;98950.34;5036960;28;20237;-73
2024/01/15 00:54:36;;;;;;;16.43;7.83;;;;;;;1.23;100.00;98950.34;5037512;28;20199;-73
2024/01/15 00:57:03;;;;;;;15.40;8.10;;;;;;;1.23;100.00;98944.38;5041565;28;20238;-73
2024/01/15 00:59:29;;;;;;;12.47;7.27;;;;;;;1.25;100.00;98943.00;5036220;28;20211;-73
2024/01/15 01:01:56;;;;;;;13.27;8.10;;;;;;;1.24;100.00;98933.66;5035368;28;20222;-73
2024/01/15 01:04:22;;;;;;;12.03;7.37;;;;;;;1.26;100.00;98922.97;5039030;28;20208;-74
2024/01/15 01:06:48;;;;;;;15.63;7.90;;;;;;;1.26;100.00;98923.72;5037852;28;20690;-73
2024/01/15 01:09:15;;;;;;;15.03;7.77;;;;;;;1.27;100.00;98911.50;5034698;28;20648;-73
2024/01/15 01:11:42;;;;;;;14.40;7.47;;;;;;;1.25;100.00;98909.19;5034355;28;20712;-74
2024/01/15 01:14:09;;;;;;;12.43;7.77;;;;;;;1.26;100.00;98908.13;5036079;28;20689;-74
2024/01/15 01:16:38;;;;;;;13.50;7.47;;;;;;;1.26;100.00;98909.97;5034822;28;20207;-73
2024/01/15 01:19:05;;;;;;;12.20;6.83;;;;;;;1.25;100.00;98908.44;5037825;28;20199;-73
2024/01/15 01:21:31;;;;;;;13.83;7.60;;;;;;;1.23;100.00;98898.34;5033335;28;20223;-73
2024/01/15 01:23:58;;;;;;;14.00;7.70;;;;;;;1.23;100.00;98911.34;5035638;28;20631;-73
2024/01/15 01:26:24;;;;;;;16.23;7.47;;;;;;;1.23;100.00;98897.56;5038445;28;20203;-74
2024/01/15 01:28:52;;;;;;;14.30;7.83;;;;;;;1.24;100.00;98891.28;5034301;28;20620;-74
2024/01/15 01:31:18;;;;;;;16.03;8.63;;;;;;;1.23;100.00;98889.78;5032358;28;20760;-74
2024/01/15 01:33:45;;;;;;;14.87;7.73;;;;;;;1.22;100.00;98889.03;5041598;28;20689;-73
2024/01/15 01:36:11;;;;;;;13.30;7.43;;;;;;;1.21;100.00;98890.06;5036684;28;20203;-73
2024/01/15 01:38:37;;;;;;;14.57;7.30;;;;;;;1.21;100.00;98882.28;5033874;28;20214;-73
2024/01/15 01:41:04;;;;;;;12.80;7.63;;;;;;;1.22;100.00;98883.03;5037339;28;20589;-73
2024/01/15 01:43:30;;;;;;;12.83;7.30;;;;;;;1.21;100.00;98877.06;5034650;28;20807;-74
2024/01/15 01:45:59;;;;;;;11.23;6.87;;;;;;;1.20;100.00;98867.75;5035117;28;20207;-74
2024/01/15 01:48:26;;;;;;;13.00;7.90;;;;;;;1.20;100.00;98851.41;5035305;28;20200;-73
2024/01/15 01:50:53;;;;;;;12.73;7.93;;;;;;;1.20;100.00;98848.81;5035869;28;20235;-74
2024/01/15 01:53:20;;;;;;;13.10;7.43;;;;;;;1.20;100.00;98849.56;5034374;28;20223;-73
2024/01/15 01:55:47;;;;;;;13.97;8.47;;;;;;;1.20;100.00;98844.34;5035897;28;20222;-74
2024/01/15 01:58:14;;;;;;;13.57;7.60;;;;;;;1.19;100.00;98850.63;5035685;28;20231;-71
2024/01/15 02:00:41;;;;;;;13.73;7.30;;;;;;;1.20;100.00;98848.81;5032992;28;20231;-73
2024/01/15 02:03:09;;;;;;;13.43;7.70;;;;;;;1.20;100.00;98835.81;5037696;28;20214;-74
2024/01/15 02:05:36;;;;;;;15.37;7.90;;;;;;;1.22;100.00;98834.44;5030595;28;20211;-73
2024/01/15 02:08:02;;;;;;;13.20;7.43;;;;;;;1.22;100.00;98841.44;5033917;28;20222;-73
2024/01/15 02:10:28;;;;;;;13.50;7.27;;;;;;;1.21;100.00;98829.53;5031180;28;20222;-73
2024/01/15 02:12:55;;;;;;;12.03;6.93;;;;;;;1.21;100.00;98832.13;5036155;28;20219;-73
2024/01/15 02:15:21;;;;;;;12.27;7.13;;;;;;;1.22;100.00;98823.25;5033241;28;20207;-73
2024/01/15 02:17:57;;;;;;;12.23;7.13;;;;;;;1.21;100.00;98822.47;5034614;28;20211;-74
2024/01/15 02:20:25;;;;;;;12.73;7.23;;;;;;;1.21;100.00;98819.88;5032333;28;20309;-73
2024/01/15 02:22:52;;;;;;;12.63;6.90;;;;;;;1.24;100.00;98832.28;5036396;28;20286;-74
2024/01/15 02:25:20;;;;;;;13.83;7.63;;;;;;;1.24;100.00;98828.91;5035748;28;20203;-73
2024/01/15 02:27:47;;;;;;;12.63;7.73;;;;;;;1.23;100.00;98819.59;5031626;28;20218;-74
2024/01/15 02:30:13;;;;;;;11.90;6.93;;;;;;;1.22;100.00;98818.84;5036094;28;20939;-73
2024/01/15 02:32:40;;;;;;;14.53;7.70;;;;;;;1.23;100.00;98814.38;5032416;28;20204;-73
2024/01/15 02:35:07;;;;;;;14.30;7.10;;;;;;;1.23;100.00;98825.56;5036109;28;20339;-73
2024/01/15 02:37:33;;;;;;;12.27;7.77;;;;;;;1.23;100.00;98825.56;5032903;28;20199;-73
2024/01/15 02:39:59;;;;;;;13.40;7.57;;;;;;;1.25;100.00;98825.25;5035569;28;20207;-74
2024/01/15 02:42:28;;;;;;;11.67;6.47;;;;;;;1.23;100.00;98822.97;5031846;28;20694;-73
2024/01/15 02:44:54;;;;;;;12.03;7.30;;;;;;;1.24;100.00;98818.50;5034849;28;20196;-74
2024/01/15 02:47:21;;;;;;;14.37;8.10;;;;;;;1.23;100.00;98822.19;5034499;28;21372;-74
2024/01/15 02:49:47;;;;;;;17.63;8.03;;;;;;;1.22;100.00;98818.06;5035894;28;20248;-73
2024/01/15 02:52:13;;;;;;;11.70;7.17;;;;;;;1.22;100.00;98825.84;5036237;28;20431;-73
2024/01/15 02:54:40;;;;;;;13.87;7.57;;;;;;;1.22;100.00;98833.66;5033048;28;20246;-73
2024/01/15 02:57:06;;;;;;;12.63;7.20;;;;;;;1.20;100.00;98833.22;5036012;28;20210;-73
2024/01/15 02:59:34;;;;;;;11.83;6.30;;;;;;;1.17;100.00;98828.59;5033463;28;20214;-74
2024/01/15 03:02:00;;;;;;;10.00;6.20;;;;;;;1.16;100.00;98835.66;5035298;28;20218;-73
2024/01/15 03:04:26;;;;;;;14.10;6.87;;;;;;;1.14;100.00;98827.38;5033890;28;20196;-74
2024/01/15 03:06:53;;;;;;;11.93;7.50;;;;;;;1.09;100.00;98827.53;5034052;28;20203;-74
2024/01/15 03:09:19;;;;;;;12.47;7.27;;;;;;;1.07;100.00;98826.31;5032379;28;20211;-73
2024/01/15 03:11:45;;;;;;;12.47;7.00;;;;;;;1.03;100.00;98833.19;5034789;28;20227;-73
2024/01/15 03:14:12;;;;;;;12.20;6.30;;;;;;;1.01;100.00;98827.53;5033012;28;20222;-74
2024/01/15 03:16:39;;;;;;;10.60;6.03;;;;;;;0.98;100.00;98817.75;5033085;28;20218;-73
2024/01/15 03:19:06;;;;;;;13.23;7.17;;;;;;;0.97;100.00;98826.59;5035339;28;20233;-73
2024/01/15 03:21:32;;;;;;;10.80;7.13;;;;;;;0.94;100.00;98827.22;5030044;28;20224;-73
2024/01/15 03:23:58;;;;;;;12.60;7.27;;;;;;;0.94;100.00;98819.44;5033479;28;20215;-74
2024/01/15 03:26:25;;;;;;;11.97;7.40;;;;;;;0.93;100.00;98820.50;5035038;28;20218;-74
2024/01/15 03:28:51;;;;;;;15.30;7.47;;;;;;;0.92;100.00;98819.75;5036595;28;20208;-73
2024/01/15 03:31:18;;;;;;;13.27;7.73;;;;;;;0.92;100.00;98822.34;5037232;28;20223;-73
2024/01/15 03:33:45;;;;;;;12.67;7.37;;;;;;;0.91;100.00;98823.41;5033483;28;20226;-73
2024/01/15 03:36:12;;;;;;;13.60;7.53;;;;;;;0.92;100.00;98829.34;5036328;28;20212;-73
2024/01/15 03:38:40;;;;;;;12.67;7.10;;;;;;;0.91;100.00;98830.44;5034337;28;20207;-73
2024/01/15 03:41:07;;;;;;;12.93;7.20;;;;;;;0.91;100.00;98830.44;5036062;28;20234;-73
2024/01/15 03:43:33;;;;;;;16.77;7.70;;;;;;;0.92;100.00;98813.75;5038439;28;20202;-74
2024/01/15 03:45:59;;;;;;;13.23;7.97;;;;;;;0.91;100.00;98823.41;5038571;28;21252;-74
2024/01/15 03:48:26;;;;;;;13.07;7.13;;;;;;;0.90;100.00;98824.47;5035181;28;20203;-74
2024/01/15 03:50:53;;;;;;;13.53;6.93;;;;;;;0.91;100.00;98826.00;5036117;28;20249;-74
2024/01/15 03:53:20;;;;;;;11.53;6.67;;;;;;;0.92;100.00;98824.16;5035351;28;20229;-71
2024/01/15 03:55:47;;;;;;;13.17;6.90;;;;;;;0.92;100.00;98834.56;5030839;28;20210;-73
2024/01/15 03:58:14;;;;;;;13.77;7.37;;;;;;;0.95;100.00;98828.75;5031805;28;20211;-73
2024/01/15 04:00:41;;;;;;;14.23;7.73;;;;;;;0.96;100.00;98844.06;5035467;28;20231;-73
2024/01/15 04:03:07;;;;;;;13.20;7.37;;;;;;;0.99;100.00;98833.03;5035542;28;20284;-73
2024/01/15 04:05:34;;;;;;;13.37;7.80;;;;;;;0.99;100.00;98833.03;5036284;28;20210;-73
2024/01/15 04:08:02;;;;;;;12.53;7.37;;;;;;;0.97;100.00;98831.81;5030920;28;20195;-73
2024/01/15 04:10:28;;;;;;;15.23;7.43;;;;;;;0.96;100.00;98831.06;5032519;28;20235;-73
2024/01/15 04:12:54;;;;;;;14.80;7.67;;;;;;;0.94;100.00;98835.03;5031915;28;20218;-73
2024/01/15 04:15:21;;;;;;;12.93;6.53;;;;;;;0.93;100.00;98829.06;5033580;28;20216;-73
2024/01/15 04:17:47;;;;;;;11.70;6.40;;;;;;;0.91;100.00;98831.22;5032369;28;20238;-74
2024/01/15 04:20:13;;;;;;;13.73;6.83;;;;;;;0.91;100.00;98827.84;5037000;28;20218;-73
2024/01/15 04:22:40;;;;;;;14.10;7.30;;;;;;;0.89;100.00;98824.78;5034735;28;20209;-73
2024/01/15 04:25:08;;;;;;;14.10;7.40;;;;;;;0.88;100.00;98810.28;5032011;28;20203;-74
2024/01/15 04:27:34;;;;;;;12.53;6.80;;;;;;;0.86;100.00;98826.16;5032289;28;20749;-73
2024/01/15 04:30:01;;;;;;;13.83;6.90;;;;;;;0.84;100.00;98817.13;5034507;28;20570;-74
2024/01/15 04:32:27;;;;;;;12.73;6.87;;;;;;;0.80;100.00;98819.59;5034634;28;20219;-73
2024/01/15 04:34:54;;;;;;;9.93;6.00;;;;;;;0.77;100.00;98809.00;5033485;28;20223;-73
2024/01/15 04:37:20;;;;;;;14.50;7.03;;;;;;;0.73;100.00;98811.47;5038126;28;20215;-74
2024/01/15 04:39:46;;;;;;;11.23;6.47;;;;;;;0.72;100.00;98817.72;5035507;28;20906;-74
2024/01/15 04:42:14;;;;;;;14.27;6.17;;;;;;;0.73;100.00;98815.91;5036016;28;20293;-73
2024/01/15 04:44:40;;;;;;;13.30;7.20;;;;;;;0.75;100.00;98813.75;5033497;28;20195;-74
2024/01/15 04:47:07;;;;;;;12.80;6.80;;;;;;;0.75;100.00;98801.53;5035330;28;20207;-74
2024/01/15 04:49:33;;;;;;;17.03;6.83;;;;;;;0.76;100.00;98805.66;5031447;28;20203;-74
2024/01/15 04:51:59;;;;;;;11.40;6.67;;;;;;;0.79;100.00;98804.28;5033352;28;20227;-73
2024/01/15 04:54:26;;;;;;;10.10;6.03;;;;;;;0.79;100.00;98807.63;5032464;28;20587;-73
2024/01/15 04:56:52;;;;;;;11.03;6.57;;;;;;;0.80;100.00;98785.81;5030289;28;20213;-73
2024/01/15 04:59:19;;;;;;;11.67;6.27;;;;;;;0.82;100.00;98777.69;5032647;28;20204;-73
2024/01/15 05:01:46;;;;;;;11.47;6.67;;;;;;;0.82;100.00;98772.50;5029886;28;20226;-74
2024/01/15 05:04:12;;;;;;;13.20;6.07;;;;;;;0.82;100.00;98782.88;5035249;28;20196;-73
2024/01/15 05:06:38;;;;;;;9.67;5.70;;;;;;;0.81;100.00;98773.56;5030069;28;20226;-74
2024/01/15 05:09:05;;;;;;;12.13;6.33;;;;;;;0.81;100.00;98783.97;5034167;28;20222;-74
2024/01/15 05:11:31;;;;;;;13.17;6.73;;;;;;;0.79;100.00;98770.53;5028814;28;20722;-73
2024/01/15 05:13:58;;;;;;;11.23;6.30;;;;;;;0.76;100.00;98751.13;5035862;28;20241;-74
2024/01/15 05:16:25;;;;;;;13.00;7.37;;;;;;;0.77;100.00;98759.66;5033390;28;20675;-73
2024/01/15 05:18:52;;;;;;;9.93;6.37;;;;;;;0.77;100.00;98762.25;5031582;28;20207;-73
2024/01/15 05:21:18;;;;;;;11.60;6.57;;;;;;;0.77;100.00;98777.84;5036076;28;20391;-73
2024/01/15 05:23:44;;;;;;;11.77;6.30;;;;;;;0.79;100.00;98773.13;5033020;28;20211;-73
2024/01/15 05:26:11;;;;;;;11.70;6.47;;;;;;;0.80;100.00;98783.22;5032989;28;20207;-74
2024/01/15 05:28:37;;;;;;;9.90;6.00;;;;;;;0.82;100.00;98773.28;5033410;28;20195;-73
2024/01/15 05:31:04;;;;;;;12.53;6.07;;;;;;;0.82;100.00;98775.88;5034325;28;20238;-74
2024/01/15 05:33:31;;;;;;;12.43;5.93;;;;;;;0.85;100.00;98777.09;5037957;28;20572;-73
2024/01/15 05:35:58;;;;;;;10.07;5.37;;;;;;;0.87;100.00;98767.16;5036255;28;20617;-74
2024/01/15 05:38:25;;;;;;;13.10;6.07;;;;;;;0.90;100.00;98774.34;5035769;28;20231;-73
2024/01/15 05:40:51;;;;;;;9.53;5.17;;;;;;;0.92;100.00;98780.75;5035519;28;20227;-73
2024/01/15 05:43:17;;;;;;;9.73;5.60;;;;;;;0.94;100.00;98765.63;5037100;28;20191;-73
2024/01/15 05:45:44;;;;;;;12.60;5.47;;;;;;;0.96;100.00;98786.09;5036328;28;20214;-74
2024/01/15 05:48:10;;;;;;;10.70;5.40;;;;;;;0.97;100.00;98770.22;5037949;28;20191;-74
2024/01/15 05:50:38;;;;;;;11.57;5.60;;;;;;;0.99;100.00;98781.06;5036034;28;20219;-74
2024/01/15 05:53:05;;;;;;;11.20;5.13;;;;;;;0.99;100.00;98781.06;5035604;28;20216;-73
2024/01/15 05:55:31;;;;;;;13.40;6.53;;;;;;;0.99;100.00;98773.25;5034389;28;20216;-75
2024/01/15 05:57:58;;;;;;;10.73;5.77;;;;;;;1.00;100.00;98777.38;5032563;28;20290;-73
2024/01/15 06:00:24;;;;;;;13.37;6.63;;;;;;;1.01;100.00;98767.78;5036804;28;20858;-74
2024/01/15 06:02:50;;;;;;;12.33;6.60;;;;;;;1.02;100.00;98775.25;5035038;28;20207;-74
2024/01/15 06:05:17;;;;;;;10.90;5.07;;;;;;;1.01;100.00;98783.34;5034672;28;20535;-74
2024/01/15 06:07:44;;;;;;;9.70;5.13;;;;;;;1.00;100.00;98779.97;5033902;28;20560;-73
2024/01/15 06:10:11;;;;;;;11.07;5.00;;;;;;;1.01;100.00;98781.53;5034991;28;20282;-73
2024/01/15 06:12:37;;;;;;;8.80;6.00;;;;;;;1.02;100.00;98780.47;5033268;28;20206;-73
2024/01/15 06:15:04;;;;;;;9.30;5.13;;;;;;;1.00;100.00;98774.03;5033674;28;20214;-73
2024/01/15 06:17:31;;;;;;;11.47;5.30;;;;;;;1.01;100.00;98772.97;5034548;28;20203;-74
2024/01/15 06:19:57;;;;;;;9.07;4.90;;;;;;;1.00;100.00;98767.00;5034694;28;20222;-73
2024/01/15 06:22:24;;;;;;;7.97;4.60;;;;;;;1.01;100.00;98772.97;5036771;28;20282;-74
2024/01/15 06:24:51;;;;;;;7.40;4.60;;;;;;;0.99;100.00;98773.25;5035434;28;20661;-73
2024/01/15 06:27:17;;;;;;;8.87;5.47;;;;;;;0.98;100.00;98778.75;5040931;28;20207;-73
2024/01/15 06:29:46;;;;;;;11.73;4.87;;;;;;;0.97;100.00;98777.25;5036713;28;20666;-73
2024/01/15 06:32:13;;;;;;;9.37;5.00;;;;;;;0.95;100.00;98782.72;5040509;28;20231;-74
2024/01/15 06:34:40;;;;;;;8.90;5.07;;;;;;;0.94;100.00;98786.41;5035609;28;20215;-73
2024/01/15 06:37:06;;;;;;;8.83;4.33;;;;;;;0.93;100.00;98779.69;5036308;28;20195;-72
2024/01/15 06:39:33;;;;;;;9.73;4.90;;;;;;;0.93;100.00;98774.50;5037812;28;20200;-74
2024/01/15 06:42:00;;;;;;;8.17;4.63;;;;;;;0.92;100.00;98780.75;5038245;28;20609;-73
2024/01/15 06:44:27;;;;;;;9.50;4.87;;;;;;;0.93;100.00;98777.09;5033746;28;20199;-73
2024/01/15 06:46:57;;;;;;;11.50;5.03;;;;;;;0.93;100.00;98773.72;5034461;28;20211;-74
2024/01/15 06:49:23;;;;;;;9.73;5.40;;;;;;;0.91;100.00;98773.28;5038486;28;20685;-74
2024/01/15 06:51:50;;;;;;;9.90;5.03;;;;;;;0.91;100.00;98783.66;5033275;28;20231;-73
2024/01/15 06:54:16;;;;;;;10.53;4.90;;;;;;;0.93;100.00;98781.50;5039013;28;20204;-73
2024/01/15 06:56:42;;;;;;;8.87;4.57;;;;;;;0.92;100.00;98772.97;5035652;28;20965;-72
2024/01/15 06:59:10;;;;;;;12.00;5.47;;;;;;;0.91;100.00;98771.44;5037982;28;20221;-73
2024/01/15 07:01:36;;;;;;;8.83;5.17;;;;;;;0.91;100.00;98762.88;5031385;28;20219;-74
2024/01/15 07:04:03;;;;;;;8.37;4.77;;;;;;;0.91;100.00;98770.66;5035395;28;20199;-73
2024/01/15 07:06:30;;;;;;;9.40;5.00;;;;;;;0.90;100.00;98764.69;5039921;28;20207;-73
2024/01/15 07:08:57;;;;;;;10.33;4.73;;;;;;;0.92;100.00;98772.19;5035212;28;20227;-73
2024/01/15 07:11:23;;;;;;;10.67;5.03;;;;;;;0.91;100.00;98781.84;5035163;28;20245;-73
2024/01/15 07:13:50;;;;;;;9.47;4.60;;;;;;;0.92;100.00;98774.78;5038295;28;20238;-74
2024/01/15 07:16:17;;;;;;;8.47;4.60;;;;;;;0.93;100.00;98777.09;5040801;28;20257;-73
2024/01/15 07:18:44;;;;;;;7.77;4.50;;;;;;;0.95;100.00;98780.13;5034583;28;20227;-74
2024/01/15 07:21:11;;;;;;;11.00;4.23;;;;;;;0.96;100.00;98779.09;5035677;28;20752;-74
2024/01/15 07:23:37;;;;;;;8.57;3.63;;;;;;;0.98;100.00;98778.75;5038486;28;20208;-73
2024/01/15 07:26:05;;;;;;;7.60;4.30;;;;;;;1.02;100.00;98787.47;5038323;28;20356;-73
2024/01/15 07:28:31;;;;;;;7.43;4.03;;;;;;;1.05;100.00;98784.28;5036516;28;20215;-74
2024/01/15 07:30:58;;;;;;;6.67;3.87;;;;;;;1.07;100.00;98802.91;5035616;28;20231;-73
2024/01/15 07:33:27;;;;;;;11.10;3.73;;;;;;;1.08;100.00;98797.44;5041734;28;20192;-73
2024/01/15 07:35:53;;;;;;;5.73;3.53;;;;;;;1.10;100.00;98789.31;5036615;28;20226;-74
2024/01/15 07:38:19;;;;;;;7.47;3.77;;;;;;;1.12;100.00;98803.53;5038898;28;20210;-73
2024/01/15 07:40:49;;;;;;;6.70;3.53;;;;;;;1.14;100.00;98808.44;5036723;28;20238;-73
2024/01/15 07:43:15;;;;;;;7.33;3.80;;;;;;;1.15;100.00;98821.13;5041319;28;20702;-73
2024/01/15 07:45:41;;;;;;;6.83;3.40;;;;;;;1.18;100.00;98796.34;5035199;28;20616;-73
2024/01/15 07:48:09;;;;;;;9.63;3.90;;;;;;;1.17;100.00;98811.19;5037913;28;20204;-74
2024/01/15 07:50:37;;;;;;;7.97;3.73;;;;;;;1.20;100.00;98815.75;5033648;28;20258;-74
2024/01/15 07:53:03;;;;;;;6.77;3.70;;;;;;;1.20;100.00;98812.41;5031385;28;20208;-73
2024/01/15 07:55:30;;;;;;;9.17;3.63;;;;;;;1.21;100.00;98816.53;5034311;28;20589;-73
2024/01/15 07:57:58;;;;;;;7.23;4.00;;;;;;;1.24;100.00;98813.31;5036885;28;20584;-74
2024/01/15 08:00:25;;;;;;;10.57;3.27;;;;;;;1.23;100.00;98817.75;5037590;28;20202;-74
2024/01/15 08:02:52;;;;;;;7.27;3.43;;;;;;;1.25;100.00;98826.00;5032596;28;20210;-74
2024/01/15 08:05:19;;;;;;;8.33;4.10;;;;;;;1.26;100.00;98827.53;5033704;28;20207;-73
2024/01/15 08:07:47;;;;;;;7.27;3.77;;;;;;;1.28;100.00;98806.44;5037379;28;20566;-74
2024/01/15 08:10:14;;;;;;;5.13;3.27;;;;;;;1.29;100.00;98818.34;5038376;28;20203;-74
2024/01/15 08:12:40;;;;;;;7.13;3.20;;;;;;;1.30;100.00;98812.09;5031697;28;20200;-73
2024/01/15 08:15:06;;;;;;;6.73;3.80;;;;;;;1.30;100.00;98796.50;5037573;28;20214;-73
2024/01/15 08:17:33;;;;;;;6.33;2.80;;;;;;;1.30;100.00;98801.69;5035968;28;20207;-73
2024/01/15 08:20:00;;;;;;;9.63;4.27;;;;;;;1.32;100.00;98802.16;5041608;28;20907;-73
2024/01/15 08:22:26;;;;;;;6.03;3.67;;;;;;;1.33;100.00;98801.84;5037473;28;20250;-73
2024/01/15 08:24:55;;;;;;;7.47;3.63;;;;;;;1.35;100.00;98797.09;5035557;28;20207;-74
2024/01/15 08:27:21;;;;;;;6.80;3.47;;;;;;;1.36;100.00;98797.88;5038707;28;20365;-74
2024/01/15 08:29:48;;;;;;;8.67;3.63;;;;;;;1.38;100.00;98808.72;5035110;28;20215;-74
2024/01/15 08:32:15;;;;;;;8.00;3.77;;;;;;;1.39;100.00;98798.00;5038445;28;20219;-73
2024/01/15 08:34:41;;;;;;;10.03;5.00;;;;;;;1.42;100.00;98812.25;5039631;28;20227;-73
2024/01/15 08:37:08;;;;;;;7.23;4.17;;;;;;;1.43;100.00;98809.34;5039262;28;20226;-72
2024/01/15 08:39:36;;;;;;;7.57;4.57;;;;;;;1.44;100.00;98786.69;5037158;28;20200;-73
2024/01/15 08:42:04;;;;;;;8.10;3.47;;;;;;;1.46;100.00;98808.69;5038251;28;20229;-73
2024/01/15 08:44:30;;;;;;;7.53;3.50;;;;;;;1.50;100.00;98821.88;5038379;28;20203;-73
2024/01/15 08:46:56;;;;;;;6.33;4.10;;;;;;;1.51;100.00;98813.00;5038550;28;20224;-73
2024/01/15 08:49:23;;;;;;;7.57;4.27;;;;;;;1.54;100.00;98831.34;5040239;28;20207;-73
2024/01/15 08:51:49;;;;;;;4.97;3.33;;;;;;;1.56;100.00;98839.59;5032000;28;20230;-73
2024/01/15 08:54:15;;;;;;;6.83;3.60;;;;;;;1.54;100.00;98827.97;5037512;28;20205;-73
2024/01/15 08:56:42;;;;;;;8.23;4.13;;;;;;;1.54;100.00;98828.75;5039787;28;20305;-73
2024/01/15 08:59:11;;;;;;;6.30;3.27;;;;;;;1.55;100.00;98829.50;5038674;28;20195;-72
2024/01/15 09:01:39;;;;;;;6.50;4.00;;;;;;;1.60;100.00;98839.75;5042114;28;20229;-73
2024/01/15 09:04:05;;;;;;;8.07;3.97;;;;;;;1.64;100.00;98838.06;5040031;28;20200;-73
2024/01/15 09:06:32;;;;;;;6.30;3.83;;;;;;;1.71;100.00;98833.16;5037482;28;20199;-73
2024/01/15 09:08:58;;;;;;;6.47;4.10;;;;;;;1.74;100.00;98837.72;5043803;28;20297;-73
2024/01/15 09:11:24;;;;;;;7.13;4.17;;;;;;;1.77;100.00;98834.53;5040479;28;20227;-73
2024/01/15 09:13:51;;;;;;;7.03;3.80;;;;;;;1.78;100.00;98836.03;5040486;28;20203;-73
2024/01/15 09:16:19;;;;;;;6.60;4.07;;;;;;;1.75;100.00;98827.03;5043378;28;20704;-74
2024/01/15 09:18:46;;;;;;;7.23;3.63;;;;;;;1.76;100.00;98820.00;5039611;28;20596;-73
2024/01/15 09:21:13;;;;;;;7.13;3.67;;;;;;;1.72;100.00;98822.41;5040531;28;20732;-73
2024/01/15 09:23:39;;;;;;;8.77;3.90;;;;;;;1.69;100.00;98848.31;5039054;28;20203;-73
2024/01/15 09:26:08;;;;;;;8.03;3.80;;;;;;;1.69;100.00;98849.06;5040185;28;20197;-73
2024/01/15 09:28:35;;;;;;;5.67;3.70;;;;;;;1.79;100.00;98848.75;5040384;28;20204;-74
2024/01/15 09:31:01;;;;;;;9.67;3.77;;;;;;;1.85;100.00;98857.91;5040813;28;20215;-73
2024/01/15 09:33:29;;;;;;;7.13;4.23;;;;;;;1.85;100.00;98878.72;5035854;28;20196;-73
2024/01/15 09:35:55;;;;;;;6.70;3.60;;;;;;;1.81;100.00;98877.81;5041451;28;20272;-73
2024/01/15 09:38:21;;;;;;;5.83;3.70;;;;;;;1.79;100.00;98893.00;5040100;28;20667;-73
2024/01/15 09:40:48;;;;;;;8.63;4.03;;;;;;;1.73;100.00;98885.63;5042715;28;20226;-73
2024/01/15 09:43:15;;;;;;;7.27;4.03;;;;;;;1.70;100.00;98879.22;5038653;28;20262;-73
2024/01/15 09:45:42;;;;;;;6.90;3.87;;;;;;;1.69;100.00;98876.91;5036571;28;20208;-73
2024/01/15 09:48:09;;;;;;;7.87;4.53;;;;;;;1.67;100.00;98874.63;5043958;28;20196;-72
2024/01/15 09:50:37;;;;;;;7.33;4.23;;;;;;;1.67;100.00;98877.22;5038658;28;20309;-74
2024/01/15 09:53:04;;;;;;;7.30;3.97;;;;;;;1.69;100.00;98871.72;5037409;28;20437;-73
2024/01/15 09:55:32;;;;;;;6.93;3.73;;;;;;;1.71;100.00;98861.78;5044245;28;20733;-73
2024/01/15 09:58:00;;;;;;;7.80;4.20;;;;;;;1.73;100.00;98852.59;5039898;28;20314;-73
2024/01/15 10:00:27;;;;;;;6.30;4.20;;;;;;;1.79;100.00;98860.97;5042577;28;20231;-74
2024/01/15 10:02:53;;;;;;;7.83;3.97;;;;;;;1.82;100.00;98852.56;5041165;28;20200;-73
2024/01/15 10:05:20;;;;;;;9.40;3.83;;;;;;;1.86;100.00;98854.22;5038113;28;20555;-73
2024/01/15 10:07:50;;;;;;;7.43;3.67;;;;;;;1.91;100.00;98848.88;5040751;28;20207;-73
2024/01/15 10:10:16;;;;;;;9.10;3.43;;;;;;;1.94;100.00;98845.66;5036626;28;20261;-73
2024/01/15 10:12:44;;;;;;;7.17;3.63;;;;;;;1.97;100.00;98846.88;5043030;28;20242;-73
2024/01/15 10:15:11;;;;;;;6.23;3.27;;;;;;;1.99;100.00;98837.69;5038727;28;20200;-72
2024/01/15 10:17:38;;;;;;;4.50;2.90;;;;;;;2.03;100.00;98840.41;5042763;28;20203;-73
2024/01/15 10:20:09;;;;;;;6.00;3.63;;;;;;;2.04;100.00;98834.91;5036573;28;20191;-73
2024/01/15 10:22:37;;;;;;;5.57;3.30;;;;;;;2.08;100.00;98841.00;5042357;28;20230;-73
2024/01/15 10:25:06;;;;;;;6.97;3.37;;;;;;;2.09;100.00;98844.38;5040429;28;20253;-73
2024/01/15 10:27:33;;;;;;;5.53;3.40;;;;;;;2.13;100.00;98837.47;5038267;28;20192;-73
2024/01/15 10:30:02;;;;;;;9.77;3.37;;;;;;;2.16;100.00;98844.66;5042983;28;20299;-72
2024/01/15 10:32:28;;;;;;;5.50;3.33;;;;;;;2.18;100.00;98851.06;5037479;28;20307;-74
2024/01/15 10:34:55;;;;;;;4.87;3.03;;;;;;;2.22;100.00;98846.00;5041529;28;20200;-73
2024/01/15 10:37:21;;;;;;;7.37;3.50;;;;;;;2.22;100.00;98835.59;5039306;28;20243;-74
2024/01/15 10:39:48;;;;;;;6.73;3.40;;;;;;;2.25;100.00;98833.16;5039572;28;20309;-73
2024/01/15 10:42:17;;;;;;;5.90;3.07;;;;;;;2.25;100.00;98829.75;5038033;28;20266;-73
2024/01/15 10:44:46;;;;;;;7.77;3.20;;;;;;;2.30;100.00;98829.59;5037969;28;20199;-73
2024/01/15 10:47:13;;;;;;;4.60;2.73;;;;;;;2.33;100.00;98824.53;5039886;28;20223;-74
2024/01/15 10:49:40;;;;;;;5.53;3.07;;;;;;;2.34;100.00;98833.84;5042106;28;20202;-73
2024/01/15 10:52:06;;;;;;;7.20;3.50;;;;;;;2.34;100.00;98831.25;5042022;28;20230;-73
2024/01/15 10:54:33;;;;;;;7.67;3.20;;;;;;;2.33;100.00;98821.91;5038662;28;20199;-73
2024/01/15 10:57:00;;;;;;;7.07;3.30;;;;;;;2.34;100.00;98827.91;5040321;28;20207;-73
2024/01/15 10:59:28;;;;;;;5.27;2.93;;;;;;;2.32;100.00;98830.03;5039590;28;20210;-74
2024/01/15 11:01:55;;;;;;;4.70;3.57;;;;;;;2.30;100.00;98829.59;5036313;28;20227;-73
2024/01/15 11:04:22;;;;;;;4.80;2.87;;;;;;;2.30;100.00;98835.56;5038473;28;20199;-73
2024/01/15 11:06:54;;;;;;;5.60;3.10;;;;;;;2.29;100.00;98844.44;5042285;28;20298;-74
2024/01/15 11:09:20;;;;;;;3.70;3.03;;;;;;;2.30;100.00;98832.19;5039042;28;20269;-73
2024/01/15 11:11:48;;;;;;;4.73;2.87;;;;;;;2.32;100.00;98835.25;5036761;28;20235;-73
2024/01/15 11:14:39;;;;;;;4.60;2.80;;;;;;;2.33;100.00;98818.56;5036722;28;20689;-73
2024/01/15 11:17:06;;;;;;;8.20;3.40;;;;;;;2.37;100.00;98822.03;5039437;28;20291;-73
2024/01/15 11:19:40;;;;;;;8.13;3.67;;;;;;;2.39;100.00;98814.69;5040979;28;20211;-73
2024/01/15 11:22:09;;;;;;;5.17;2.80;;;;;;;2.39;100.00;98812.84;5035831;28;20229;-73
2024/01/15 11:24:40;;;;;;;6.20;3.07;;;;;;;2.36;100.00;98821.31;5039181;28;20203;-73
2024/01/15 11:27:07;;;;;;;7.13;3.03;;;;;;;2.31;100.00;98837.09;5040189;28;20290;-73